createdAt,value
2024-03-02T00:00:48.134Z,1.00
2024-03-02T00:03:16.151Z,0.90
2024-03-02T00:05:43.613Z,0.83
2024-03-02T00:08:11.404Z,0.90
2024-03-02T00:10:42.310Z,0.80
2024-03-02T00:13:12.811Z,0.90
2024-03-02T00:15:53.721Z,0.60
2024-03-02T00:18:41.691Z,0.80
2024-03-02T00:21:11.172Z,0.83
2024-03-02T00:23:39.963Z,0.87
2024-03-02T00:26:07.913Z,0.60
2024-03-02T00:28:37.170Z,0.50
2024-03-02T00:31:14.470Z,0.47
2024-03-02T00:33:47.627Z,0.30
2024-03-02T00:36:29.088Z,0.40
2024-03-02T00:38:57.719Z,0.20
2024-03-02T00:41:32.824Z,0.30
2024-03-02T00:44:00.651Z,0.30
2024-03-02T00:46:43.053Z,0.30
2024-03-02T00:49:24.360Z,0.27
2024-03-02T00:51:53.366Z,0.40
2024-03-02T00:54:23.254Z,0.20
2024-03-02T00:56:51.562Z,0.30
2024-03-02T00:59:19.397Z,0.40
2024-03-02T01:01:47.097Z,0.30
2024-03-02T01:04:15.510Z,0.30
2024-03-02T01:06:43.959Z,0.30
2024-03-02T01:09:13.784Z,0.33
2024-03-02T01:11:41.582Z,0.40
2024-03-02T01:14:09.270Z,0.30
2024-03-02T01:16:36.857Z,0.30
2024-03-02T01:19:05.285Z,0.33
2024-03-02T01:21:33.213Z,0.40
2024-03-02T01:24:03.361Z,0.30
2024-03-02T01:26:30.902Z,0.40
2024-03-02T01:28:58.137Z,0.50
2024-03-02T01:31:25.757Z,0.40
2024-03-02T01:33:53.200Z,0.43
2024-03-02T01:36:21.160Z,0.30
2024-03-02T01:38:48.639Z,0.30
2024-03-02T01:41:15.937Z,0.50
2024-03-02T01:43:43.831Z,0.30
2024-03-02T01:46:11.214Z,0.30
2024-03-02T01:48:38.757Z,0.33
2024-03-02T01:51:07.873Z,0.40
2024-03-02T01:53:36.305Z,0.40
2024-03-02T01:56:03.982Z,0.40
2024-03-02T01:58:31.650Z,0.43
2024-03-02T02:00:59.298Z,0.40
2024-03-02T02:03:28.208Z,0.30
2024-03-02T02:05:55.860Z,0.57
2024-03-02T02:08:24.872Z,0.40
2024-03-02T02:10:52.464Z,0.30
2024-03-02T02:13:19.887Z,0.40
2024-03-02T02:15:47.397Z,0.30
2024-03-02T02:18:14.862Z,0.40
2024-03-02T02:20:42.250Z,0.50
2024-03-02T02:23:11.426Z,0.50
2024-03-02T02:25:38.889Z,0.40
2024-03-02T02:28:06.741Z,0.40
2024-03-02T02:30:34.668Z,0.40
2024-03-02T02:33:02.577Z,0.50
2024-03-02T02:35:30.928Z,0.50
2024-03-02T02:38:00.566Z,0.53
2024-03-02T02:40:30.541Z,0.40
2024-03-02T02:42:58.688Z,0.50
2024-03-02T02:45:26.193Z,0.60
2024-03-02T02:47:53.727Z,0.40
2024-03-02T02:50:21.124Z,0.50
2024-03-02T02:52:48.758Z,0.40
2024-03-02T02:55:17.457Z,0.43
2024-03-02T02:57:45.417Z,0.50
2024-03-02T03:00:20.285Z,0.50
2024-03-02T03:02:51.513Z,0.60
2024-03-02T03:05:20.142Z,0.60
2024-03-02T03:07:49.816Z,0.40
2024-03-02T03:10:17.832Z,0.40
2024-03-02T03:12:45.771Z,0.50
2024-03-02T03:15:14.256Z,0.40
2024-03-02T03:17:42.457Z,0.60
2024-03-02T03:20:13.818Z,0.40
2024-03-02T03:22:41.727Z,0.50
2024-03-02T03:25:10.142Z,0.50
2024-03-02T03:27:37.869Z,0.50
2024-03-02T03:30:08.080Z,0.40
2024-03-02T03:32:35.974Z,0.50
2024-03-02T03:35:04.058Z,0.50
2024-03-02T03:37:35.108Z,0.30
2024-03-02T03:40:13.144Z,0.40
2024-03-02T03:42:41.146Z,0.43
2024-03-02T03:45:09.360Z,0.47
2024-03-02T03:47:37.561Z,0.30
2024-03-02T03:50:08.948Z,0.37
2024-03-02T03:52:36.742Z,0.50
2024-03-02T03:55:04.289Z,0.57
2024-03-02T03:57:31.869Z,0.50
2024-03-02T03:59:59.457Z,0.20
2024-03-02T04:02:27.030Z,0.50
2024-03-02T04:04:56.989Z,0.30
2024-03-02T04:07:24.473Z,0.40
2024-03-02T04:09:52.066Z,0.40
2024-03-02T04:12:19.501Z,0.30
2024-03-02T04:14:47.125Z,0.40
2024-03-02T04:17:14.447Z,0.50
2024-03-02T04:19:43.646Z,0.37
2024-03-02T04:22:15.924Z,0.50
2024-03-02T04:24:49.173Z,0.50
2024-03-02T04:27:16.644Z,0.30
2024-03-02T04:29:44.380Z,0.50
2024-03-02T04:32:13.423Z,0.70
2024-03-02T04:34:41.056Z,0.30
2024-03-02T04:37:08.711Z,0.40
2024-03-02T04:39:37.037Z,0.50
2024-03-02T04:42:04.919Z,0.50
2024-03-02T04:44:32.491Z,0.43
2024-03-02T04:46:59.713Z,0.50
2024-03-02T04:49:27.443Z,0.50
2024-03-02T04:51:54.876Z,0.50
2024-03-02T04:54:22.640Z,0.40
2024-03-02T04:56:53.079Z,0.40
2024-03-02T04:59:20.776Z,0.40
2024-03-02T05:01:48.827Z,0.60
2024-03-02T05:04:16.569Z,0.50
2024-03-02T05:06:44.219Z,0.50
2024-03-02T05:09:11.693Z,0.40
2024-03-02T05:11:39.100Z,0.50
2024-03-02T05:14:07.802Z,0.97
2024-03-02T05:16:36.414Z,0.40
2024-03-02T05:19:03.897Z,0.50
2024-03-02T05:21:31.224Z,0.40
2024-03-02T05:23:58.673Z,0.40
2024-03-02T05:26:26.319Z,0.60
2024-03-02T05:28:54.184Z,0.40
2024-03-02T05:31:21.879Z,0.40
2024-03-02T05:33:51.332Z,0.50
2024-03-02T05:36:20.521Z,0.47
2024-03-02T05:38:48.171Z,0.50
2024-03-02T05:41:15.555Z,0.50
2024-03-02T05:43:43.018Z,0.50
2024-03-02T05:46:10.659Z,0.50
2024-03-02T05:48:38.003Z,0.40
2024-03-02T05:51:05.369Z,0.40
2024-03-02T05:53:33.080Z,0.67
2024-03-02T05:56:05.273Z,0.50
2024-03-02T05:58:38.833Z,0.50
2024-03-02T06:01:06.957Z,0.50
2024-03-02T06:03:34.597Z,0.60
2024-03-02T06:06:02.015Z,0.60
2024-03-02T06:08:29.432Z,0.47
2024-03-02T06:10:57.911Z,0.40
2024-03-02T06:13:26.667Z,0.70
2024-03-02T06:15:55.166Z,0.60
2024-03-02T06:18:22.591Z,0.60
2024-03-02T06:20:50.388Z,0.40
2024-03-02T06:23:17.966Z,0.33
2024-03-02T06:25:45.350Z,0.30
2024-03-02T06:28:12.930Z,0.50
2024-03-02T06:30:40.238Z,0.40
2024-03-02T06:33:07.865Z,0.43
2024-03-02T06:35:36.598Z,0.40
2024-03-02T06:38:04.187Z,0.87
2024-03-02T06:40:32.210Z,0.60
2024-03-02T06:42:59.964Z,0.40
2024-03-02T06:45:27.961Z,0.47
2024-03-02T06:47:55.469Z,0.40
2024-03-02T06:50:23.150Z,0.50
2024-03-02T06:52:50.499Z,0.50
2024-03-02T06:55:17.945Z,0.77
2024-03-02T06:57:47.636Z,0.60
2024-03-02T07:00:15.682Z,0.57
2024-03-02T07:02:44.076Z,0.57
2024-03-02T07:05:12.657Z,0.63
2024-03-02T07:07:40.325Z,0.50
2024-03-02T07:10:11.764Z,0.60
2024-03-02T07:12:39.429Z,0.60
2024-03-02T07:15:07.671Z,0.43
2024-03-02T07:17:35.330Z,0.50
2024-03-02T07:20:02.958Z,0.40
2024-03-02T07:22:30.730Z,0.40
2024-03-02T07:24:58.229Z,0.57
2024-03-02T07:27:25.696Z,0.53
2024-03-02T07:29:53.092Z,0.57
2024-03-02T07:32:20.521Z,0.80
2024-03-02T07:34:48.112Z,0.50
2024-03-02T07:37:15.725Z,0.50
2024-03-02T07:39:43.444Z,0.50
2024-03-02T07:42:11.022Z,0.60
2024-03-02T07:44:40.828Z,0.40
2024-03-02T07:47:09.387Z,0.57
2024-03-02T07:49:37.118Z,0.60
2024-03-02T07:52:05.156Z,0.50
2024-03-02T07:54:32.916Z,0.50
2024-03-02T07:57:00.843Z,0.60
2024-03-02T07:59:28.325Z,0.50
2024-03-02T08:01:56.748Z,0.80
2024-03-02T08:04:26.209Z,0.53
2024-03-02T08:06:53.876Z,0.50
2024-03-02T08:09:21.642Z,0.50
2024-03-02T08:11:49.154Z,0.50
2024-03-02T08:14:17.214Z,0.90
2024-03-02T08:16:44.812Z,0.60
2024-03-02T08:19:18.632Z,0.60
2024-03-02T08:21:46.457Z,0.40
2024-03-02T08:24:14.113Z,0.70
2024-03-02T08:26:41.501Z,0.60
2024-03-02T08:29:08.882Z,0.43
2024-03-02T08:31:38.845Z,0.53
2024-03-02T08:34:06.338Z,0.60
2024-03-02T08:36:33.829Z,0.80
2024-03-02T08:39:01.541Z,0.50
2024-03-02T08:41:29.255Z,0.70
2024-03-02T08:43:56.864Z,0.63
2024-03-02T08:46:24.557Z,0.50
2024-03-02T08:48:52.094Z,0.63
2024-03-02T08:51:19.615Z,0.60
2024-03-02T08:53:47.305Z,0.83
2024-03-02T08:56:15.192Z,0.60
2024-03-02T08:58:42.768Z,0.73
2024-03-02T09:01:10.188Z,0.60
2024-03-02T09:03:38.525Z,0.60
2024-03-02T09:06:06.175Z,0.70
2024-03-02T09:08:33.540Z,0.50
2024-03-02T09:11:01.625Z,0.50
2024-03-02T09:13:29.252Z,0.40
2024-03-02T09:15:56.778Z,0.52
2024-03-02T09:18:24.491Z,0.60
2024-03-02T09:20:51.924Z,0.82
2024-03-02T09:23:19.148Z,0.88
2024-03-02T09:25:46.912Z,0.50
2024-03-02T09:28:15.019Z,0.60
2024-03-02T09:30:44.476Z,0.68
2024-03-02T09:35:42.603Z,0.50
2024-03-02T09:38:09.916Z,0.60
2024-03-02T09:40:37.796Z,0.57
2024-03-02T09:43:05.465Z,0.80
2024-03-02T09:45:33.095Z,0.55
2024-03-02T09:48:00.769Z,0.75
2024-03-02T09:50:28.421Z,0.90
2024-03-02T09:52:55.874Z,0.50
2024-03-02T09:55:23.413Z,0.52
2024-03-02T09:57:51.185Z,0.63
2024-03-02T10:00:19.547Z,0.70
2024-03-02T10:02:50.540Z,0.60
2024-03-02T10:05:31.039Z,0.60
2024-03-02T10:08:03.373Z,1.05
2024-03-02T10:10:41.427Z,1.23
2024-03-02T10:13:10.626Z,0.60
2024-03-02T10:15:41.729Z,0.38
2024-03-02T10:18:15.496Z,0.60
2024-03-02T10:20:43.039Z,1.25
2024-03-02T10:23:19.039Z,1.10
2024-03-02T10:25:55.215Z,0.52
2024-03-02T10:28:25.983Z,0.55
2024-03-02T10:30:55.046Z,0.63
2024-03-02T10:33:25.561Z,0.60
2024-03-02T10:35:53.361Z,0.77
2024-03-02T10:38:22.135Z,0.60
2024-03-02T10:40:52.645Z,0.30
2024-03-02T10:43:21.667Z,0.80
2024-03-02T10:45:52.618Z,0.55
2024-03-02T10:48:20.321Z,0.47
2024-03-02T10:50:48.266Z,1.02
2024-03-02T10:53:15.574Z,0.70
2024-03-02T10:55:43.312Z,0.40
2024-03-02T10:58:13.361Z,0.40
2024-03-02T11:00:46.185Z,0.70
2024-03-02T11:03:14.851Z,0.57
2024-03-02T11:05:46.560Z,0.60
2024-03-02T11:08:17.687Z,0.52
2024-03-02T11:11:03.148Z,0.57
2024-03-02T11:13:34.669Z,0.95
2024-03-02T11:16:36.697Z,0.73
2024-03-02T11:19:17.660Z,0.50
2024-03-02T11:21:46.626Z,0.50
2024-03-02T11:24:26.379Z,0.90
2024-03-02T11:26:54.158Z,0.60
2024-03-02T11:29:41.676Z,0.40
2024-03-02T11:32:19.195Z,0.55
2024-03-02T11:34:51.398Z,0.43
2024-03-02T11:37:23.829Z,0.50
2024-03-02T11:39:53.187Z,0.63
2024-03-02T11:42:21.005Z,0.77
2024-03-02T11:44:50.435Z,0.70
2024-03-02T11:47:21.757Z,0.55
2024-03-02T11:49:54.106Z,0.90
2024-03-02T11:52:22.046Z,0.55
2024-03-02T11:54:53.064Z,0.55
2024-03-02T11:57:24.152Z,0.55
2024-03-02T11:59:52.331Z,0.70
2024-03-02T12:02:23.299Z,0.57
2024-03-02T12:04:51.953Z,0.60
2024-03-02T12:07:23.974Z,0.45
2024-03-02T12:10:06.937Z,0.52
2024-03-02T12:12:35.159Z,1.00
2024-03-02T12:15:03.153Z,0.63
2024-03-02T12:17:32.646Z,0.60
2024-03-02T12:20:00.055Z,0.60
2024-03-02T12:22:27.717Z,0.47
2024-03-02T12:24:55.430Z,0.70
2024-03-02T12:27:23.145Z,0.40
2024-03-02T12:29:51.949Z,0.90
2024-03-02T12:32:19.509Z,0.43
2024-03-02T12:34:49.779Z,0.77
2024-03-02T12:37:17.425Z,0.52
2024-03-02T12:39:48.380Z,0.50
2024-03-02T12:42:16.100Z,0.50
2024-03-02T12:44:43.540Z,0.57
2024-03-02T12:47:12.591Z,0.70
2024-03-02T12:49:42.138Z,0.68
2024-03-02T12:52:09.864Z,0.63
2024-03-02T12:54:37.553Z,0.70
2024-03-02T12:57:05.420Z,0.60
2024-03-02T12:59:34.407Z,0.80
2024-03-02T13:02:03.090Z,0.88
2024-03-02T13:04:32.332Z,0.47
2024-03-02T13:07:00.143Z,0.50
2024-03-02T13:09:28.019Z,0.60
2024-03-02T13:11:56.340Z,0.50
2024-03-02T13:14:26.275Z,0.68
2024-03-02T13:16:58.531Z,0.68
2024-03-02T13:19:26.415Z,0.80
2024-03-02T13:21:54.139Z,0.55
2024-03-02T13:24:21.611Z,0.75
2024-03-02T13:26:49.230Z,0.50
2024-03-02T13:29:16.697Z,0.65
2024-03-02T13:31:43.916Z,0.60
2024-03-02T13:34:11.436Z,0.55
2024-03-02T13:36:39.623Z,0.50
2024-03-02T13:39:10.498Z,0.60
2024-03-02T13:41:38.519Z,0.68
2024-03-02T13:44:06.252Z,0.60
2024-03-02T13:46:34.092Z,0.85
2024-03-02T13:49:02.800Z,0.52
2024-03-02T13:51:30.180Z,0.40
2024-03-02T13:53:57.696Z,0.80
2024-03-02T13:56:26.123Z,0.52
2024-03-02T13:58:53.717Z,0.60
2024-03-02T14:01:21.440Z,0.55
2024-03-02T14:03:49.432Z,0.50
2024-03-02T14:06:17.096Z,0.50
2024-03-02T14:08:46.185Z,0.50
2024-03-02T14:11:16.387Z,0.40
2024-03-02T14:13:45.574Z,0.70
2024-03-02T14:16:13.436Z,0.80
2024-03-02T14:18:41.048Z,0.55
2024-03-02T14:21:09.014Z,0.70
2024-03-02T14:23:36.674Z,0.60
2024-03-02T14:26:04.240Z,0.57
2024-03-02T14:28:47.763Z,0.90
2024-03-02T14:31:18.930Z,0.68
2024-03-02T14:33:46.799Z,0.70
2024-03-02T14:36:18.746Z,0.80
2024-03-02T14:38:47.020Z,0.70
2024-03-02T14:41:14.790Z,0.75
2024-03-02T14:43:42.618Z,0.73
2024-03-02T14:46:10.270Z,0.52
2024-03-02T14:48:39.339Z,0.70
2024-03-02T14:51:07.013Z,0.70
2024-03-02T14:53:34.411Z,0.77
2024-03-02T14:56:01.960Z,0.52
2024-03-02T14:58:29.215Z,0.65
2024-03-02T15:00:56.672Z,0.70
2024-03-02T15:03:30.117Z,0.60
2024-03-02T15:06:02.257Z,0.70
2024-03-02T15:08:29.717Z,0.43
2024-03-02T15:10:58.706Z,0.93
2024-03-02T15:13:27.701Z,1.88
2024-03-02T15:15:55.292Z,0.70
2024-03-02T15:18:22.644Z,0.43
2024-03-02T15:20:49.888Z,0.70
2024-03-02T15:23:17.160Z,0.77
2024-03-02T15:25:44.429Z,0.77
2024-03-02T15:28:12.131Z,0.57
2024-03-02T15:30:39.816Z,0.50
2024-03-02T15:33:07.360Z,0.50
2024-03-02T15:35:34.996Z,0.75
2024-03-02T15:38:02.262Z,0.77
2024-03-02T15:40:30.118Z,0.65
2024-03-02T15:42:57.429Z,0.77
2024-03-02T15:45:25.536Z,0.50
2024-03-02T15:47:53.184Z,1.25
2024-03-02T15:50:20.891Z,0.50
2024-03-02T15:52:48.323Z,0.50
2024-03-02T15:55:17.072Z,0.60
2024-03-02T15:57:44.718Z,0.63
2024-03-02T16:00:12.616Z,0.57
2024-03-02T16:02:39.898Z,0.60
2024-03-02T16:05:07.923Z,0.35
2024-03-02T16:07:38.094Z,0.95
2024-03-02T16:10:08.882Z,0.40
2024-03-02T16:12:36.602Z,0.50
2024-03-02T16:15:06.572Z,0.47
2024-03-02T16:17:33.931Z,0.45
2024-03-02T16:20:01.549Z,0.47
2024-03-02T16:22:30.542Z,0.55
2024-03-02T16:24:58.091Z,0.50
2024-03-02T16:27:26.125Z,0.65
2024-03-02T16:29:55.441Z,0.50
2024-03-02T16:32:23.115Z,0.60
2024-03-02T16:34:50.784Z,0.65
2024-03-02T16:37:19.599Z,0.50
2024-03-02T16:39:47.700Z,0.55
2024-03-02T16:42:16.053Z,0.50
2024-03-02T16:44:43.876Z,0.60
2024-03-02T16:47:13.904Z,0.60
2024-03-02T16:49:41.613Z,0.75
2024-03-02T16:52:09.191Z,0.60
2024-03-02T16:54:36.531Z,0.50
2024-03-02T16:57:03.927Z,0.50
2024-03-02T16:59:31.644Z,0.82
2024-03-02T17:02:00.216Z,0.70
2024-03-02T17:04:28.669Z,1.10
2024-03-02T17:06:57.367Z,1.08
2024-03-02T17:09:24.834Z,1.10
2024-03-02T17:11:52.593Z,1.02
2024-03-02T17:14:20.261Z,0.90
2024-03-02T17:16:53.080Z,0.70
2024-03-02T17:19:20.680Z,0.65
2024-03-02T17:21:48.340Z,0.77
2024-03-02T17:24:16.179Z,0.60
2024-03-02T17:26:43.495Z,1.00
2024-03-02T17:29:11.002Z,0.80
2024-03-02T17:31:38.594Z,0.75
2024-03-02T17:34:05.933Z,0.90
2024-03-02T17:36:33.265Z,0.90
2024-03-02T17:39:04.720Z,0.60
2024-03-02T17:41:32.370Z,0.57
2024-03-02T17:43:59.953Z,0.60
2024-03-02T17:46:27.392Z,0.73
2024-03-02T17:48:55.118Z,0.70
2024-03-02T17:51:22.830Z,0.68
2024-03-02T17:53:52.854Z,0.70
2024-03-02T17:56:20.247Z,0.80
2024-03-02T17:58:47.832Z,0.60
2024-03-02T18:01:16.699Z,0.70
2024-03-02T18:03:44.269Z,0.60
2024-03-02T18:06:13.654Z,0.82
2024-03-02T18:08:41.339Z,0.60
2024-03-02T18:11:09.113Z,0.50
2024-03-02T18:13:37.059Z,0.80
2024-03-02T18:16:04.895Z,0.70
2024-03-02T18:18:32.829Z,0.82
2024-03-02T18:21:00.579Z,0.95
2024-03-02T18:23:27.811Z,0.90
2024-03-02T18:25:56.421Z,0.75
2024-03-02T18:28:24.102Z,0.60
2024-03-02T18:30:51.893Z,0.80
2024-03-02T18:33:19.650Z,0.77
2024-03-02T18:35:50.383Z,0.95
2024-03-02T18:38:18.689Z,0.90
2024-03-02T18:40:49.302Z,0.70
2024-03-02T18:43:19.607Z,0.93
2024-03-02T18:45:47.081Z,0.93
2024-03-02T18:48:14.597Z,1.20
2024-03-02T18:50:42.031Z,1.10
2024-03-02T18:53:11.597Z,0.80
2024-03-02T18:55:41.153Z,0.85
2024-03-02T18:58:08.875Z,1.00
2024-03-02T19:00:36.675Z,1.20
2024-03-02T19:03:06.402Z,0.95
2024-03-02T19:05:34.640Z,1.25
2024-03-02T19:08:04.138Z,1.10
2024-03-02T19:10:31.549Z,0.93
2024-03-02T19:12:59.061Z,0.98
2024-03-02T19:15:26.517Z,1.00
2024-03-02T19:17:54.252Z,0.80
2024-03-02T19:20:21.820Z,1.13
2024-03-02T19:22:51.593Z,1.13
2024-03-02T19:25:21.452Z,1.30
2024-03-02T19:27:48.873Z,1.13
2024-03-02T19:30:16.649Z,1.25
2024-03-02T19:32:44.232Z,0.98
2024-03-02T19:35:13.128Z,1.00
2024-03-02T19:37:42.277Z,1.00
2024-03-02T19:40:11.838Z,0.80
2024-03-02T19:42:41.210Z,1.20
2024-03-02T19:45:09.049Z,1.10
2024-03-02T19:47:37.491Z,0.80
2024-03-02T19:50:06.794Z,0.80
2024-03-02T19:52:34.403Z,0.98
2024-03-02T19:55:02.790Z,1.08
2024-03-02T19:57:31.055Z,1.20
2024-03-02T19:59:58.683Z,1.15
2024-03-02T20:02:28.258Z,1.42
2024-03-02T20:04:57.633Z,1.35
2024-03-02T20:07:25.044Z,0.98
2024-03-02T20:09:54.492Z,1.13
2024-03-02T20:12:21.920Z,0.90
2024-03-02T20:14:49.748Z,0.90
2024-03-02T20:17:17.279Z,1.33
2024-03-02T20:19:45.128Z,1.40
2024-03-02T20:22:13.903Z,1.20
2024-03-02T20:24:42.066Z,1.02
2024-03-02T20:27:09.587Z,1.00
2024-03-02T20:29:37.014Z,1.27
2024-03-02T20:32:05.082Z,1.25
2024-03-02T20:34:34.878Z,1.33
2024-03-02T20:37:02.230Z,1.20
2024-03-02T20:39:31.682Z,1.45
2024-03-02T20:41:59.136Z,1.20
2024-03-02T20:44:27.286Z,1.38
2024-03-02T20:46:55.401Z,1.30
2024-03-02T20:49:24.721Z,1.17
2024-03-02T20:51:52.307Z,1.30
2024-03-02T20:54:19.974Z,1.35
2024-03-02T20:56:47.521Z,1.40
2024-03-02T20:59:15.157Z,1.25
2024-03-02T21:01:44.023Z,1.50
2024-03-02T21:04:14.954Z,1.27
2024-03-02T21:06:43.176Z,1.55
2024-03-02T21:09:10.714Z,1.20
2024-03-02T21:11:45.350Z,1.52
2024-03-02T21:14:13.268Z,1.45
2024-03-02T21:16:43.881Z,1.88
2024-03-02T21:19:13.051Z,1.40
2024-03-02T21:21:43.309Z,1.80
2024-03-02T21:24:10.896Z,1.55
2024-03-02T21:26:42.643Z,1.48
2024-03-02T21:29:10.782Z,1.83
2024-03-02T21:31:38.257Z,1.55
2024-03-02T21:34:06.053Z,1.52
2024-03-02T21:36:34.648Z,1.17
2024-03-02T21:39:04.427Z,1.45
2024-03-02T21:41:33.054Z,1.80
2024-03-02T21:44:00.618Z,1.48
2024-03-02T21:46:28.010Z,1.60
2024-03-02T21:48:56.138Z,1.75
2024-03-02T21:51:23.867Z,1.70
2024-03-02T21:53:51.457Z,1.67
2024-03-02T21:56:19.162Z,1.98
2024-03-02T21:58:46.453Z,1.70
2024-03-02T22:01:14.097Z,1.50
2024-03-02T22:03:46.891Z,1.73
2024-03-02T22:06:15.052Z,1.33
2024-03-02T22:08:42.846Z,1.63
2024-03-02T22:11:10.478Z,1.30
2024-03-02T22:13:38.697Z,1.33
2024-03-02T22:16:07.176Z,1.30
2024-03-02T22:18:34.952Z,1.58
2024-03-02T22:21:02.493Z,1.23
2024-03-02T22:23:31.363Z,1.58
2024-03-02T22:26:01.656Z,1.50
2024-03-02T22:28:29.311Z,2.10
2024-03-02T22:30:57.008Z,1.58
2024-03-02T22:33:25.228Z,1.20
2024-03-02T22:35:52.853Z,1.23
2024-03-02T22:38:21.011Z,1.63
2024-03-02T22:40:48.511Z,1.20
2024-03-02T22:43:16.040Z,1.38
2024-03-02T22:45:43.544Z,1.30
2024-03-02T22:48:13.121Z,1.27
2024-03-02T22:50:40.872Z,1.33
2024-03-02T22:53:09.340Z,0.95
2024-03-02T22:55:36.988Z,1.05
2024-03-02T22:58:04.404Z,1.05
2024-03-02T23:00:32.149Z,1.13
2024-03-02T23:02:59.754Z,1.10
2024-03-02T23:05:27.077Z,1.20
2024-03-02T23:07:54.501Z,1.00
2024-03-02T23:10:22.122Z,1.10
2024-03-02T23:12:49.532Z,1.15
2024-03-02T23:15:17.071Z,1.20
2024-03-02T23:17:44.472Z,1.20
2024-03-02T23:20:12.179Z,1.20
2024-03-02T23:22:39.780Z,1.00
2024-03-02T23:25:07.985Z,1.30
2024-03-02T23:27:35.714Z,1.20
2024-03-02T23:30:03.341Z,1.10
2024-03-02T23:32:30.914Z,1.45
2024-03-02T23:34:58.259Z,1.50
2024-03-02T23:37:25.922Z,2.13
2024-03-02T23:40:02.333Z,1.30
2024-03-02T23:42:31.142Z,1.40
2024-03-02T23:44:58.444Z,1.17
2024-03-02T23:47:26.042Z,1.60
2024-03-02T23:49:53.775Z,1.30
2024-03-02T23:52:21.417Z,1.30
2024-03-02T23:54:48.676Z,1.70
2024-03-02T23:57:16.302Z,1.48
2024-03-02T23:59:43.584Z,1.55
